Time;durP1;ratioP1;P1;durP2;ratioP2;P2;SDS_P1;SDS_P2;PMS_P1;PMS_P2;Temp;Humidity;BMP_temperature;BMP_pressure;BME280_temperature;BME280_humidity;BME280_pressure;Samples;Min_cycle;Max_cycle;Signal;HPM_P1;HPM_P2
2022/09/01 00:00:48;;;;;;;4.85;1.88;;;;;;;15.72;63.93;102000.41;5000056;28;20434;-83
2022/09/01 00:03:21;;;;;;;3.20;1.80;;;;;;;15.89;64.10;102031.19;5016268;28;20030;-83
2022/09/01 00:05:57;;;;;;;3.78;1.60;;;;;;;15.79;63.73;101993.69;4990524;28;20064;-83
2022/09/01 00:08:29;;;;;;;3.42;1.48;;;;;;;15.99;64.04;102048.72;5000357;28;20026;-83
2022/09/01 00:10:58;;;;;;;4.95;1.98;;;;;;;15.76;64.20;102001.78;5012278;28;20060;-82
2022/09/01 00:13:25;;;;;;;2.85;1.80;;;;;;;15.75;63.76;102000.13;5012600;28;20461;-83
2022/09/01 00:15:53;;;;;;;2.90;1.90;;;;;;;15.87;64.58;102040.94;5002288;28;20140;-83
2022/09/01 00:18:21;;;;;;;3.97;2.00;;;;;;;15.62;64.55;101994.25;5023280;28;20474;-83
2022/09/01 00:20:54;;;;;;;5.17;2.10;;;;;;;15.81;63.78;102010.06;5010294;28;20924;-83
2022/09/01 00:23:25;;;;;;;4.72;2.20;;;;;;;15.79;64.33;102021.63;4988881;28;20284;-82
2022/09/01 00:26:03;;;;;;;3.80;1.98;;;;;;;15.63;64.34;102002.00;4992371;28;20049;-83
2022/09/01 00:28:31;;;;;;;3.15;1.90;;;;;;;15.67;64.63;102005.19;5000802;28;20021;-83
2022/09/01 00:30:59;;;;;;;;;;;;;;;16.11;63.10;102037.19;4992232;28;20465;-84
2022/09/01 00:33:30;;;;;;;4.75;2.20;;;;;;;15.72;65.50;102031.78;5024364;28;20401;-83
2022/09/01 00:36:01;;;;;;;4.40;2.13;;;;;;;15.58;65.26;101990.22;5021477;28;20029;-83
2022/09/01 00:38:50;;;;;;;4.07;1.95;;;;;;;15.73;65.27;102020.38;5002826;28;20367;-83
2022/09/01 00:41:21;;;;;;;3.45;1.98;;;;;;;15.40;65.68;101979.53;4997926;28;20044;-83
2022/09/01 00:43:52;;;;;;;3.45;1.80;;;;;;;15.62;64.87;101994.25;5003734;28;20033;-83
2022/09/01 00:49:31;;;;;;;5.75;2.28;;;;;;;15.69;65.23;102021.56;5012361;28;20045;-83
2022/09/01 00:52:13;;;;;;;4.05;2.03;;;;;;;15.36;65.67;101978.94;5000436;28;20040;-84
2022/09/01 00:54:43;;;;;;;3.42;1.80;;;;;;;15.69;65.45;102021.56;5009896;28;20030;-84
2022/09/01 00:57:35;;;;;;;4.00;1.88;;;;;;;15.54;65.05;101991.44;5004724;28;20037;-83
2022/09/01 01:00:10;;;;;;;3.85;2.00;;;;;;;15.41;66.06;101987.25;5029533;28;20153;-83
2022/09/01 01:02:39;;;;;;;4.88;2.10;;;;;;;15.42;65.66;101993.31;5023710;28;20542;-83
2022/09/01 01:06:06;;;;;;;;;;;;;;;;;;;;;
2022/09/01 01:09:06;;;;;;;;;;;;;;;;;;;;;
2022/09/01 01:12:36;;;;;;;;;;;;;;;;;;;;;
2022/09/01 01:23:10;;;;;;;;;;;;;;;;;;;;;
2022/09/01 01:24:35;;;;;;;5.05;2.17;;;;;;;15.10;66.43;101967.25;4808441;29;20045;-82
2022/09/01 01:27:40;;;;;;;;;;;;;;;15.64;64.71;102014.09;4815773;29;20042;-82
2022/09/01 01:30:26;;;;;;;;;;;;;;;;;;;;;
2022/09/01 01:33:00;;;;;;;4.65;2.20;;;;;;;15.14;66.14;101969.47;4814204;29;20047;-82
2022/09/01 01:35:32;;;;;;;3.33;2.20;;;;;;;15.18;66.65;101990.13;4816798;29;20030;-82
2022/09/01 01:38:06;;;;;;;6.57;2.53;;;;;;;14.99;67.55;102001.25;4800973;29;20057;-82
2022/09/01 01:40:35;;;;;;;4.60;2.38;;;;;;;14.87;67.48;101967.34;4818763;29;20034;-82
2022/09/01 01:43:04;;;;;;;4.85;2.40;;;;;;;14.88;67.59;101979.44;4832541;29;20050;-82
2022/09/01 01:45:34;;;;;;;3.90;2.40;;;;;;;14.75;68.41;101984.00;4880191;23;20720;-81
2022/09/01 01:48:09;;;;;;;5.90;2.50;;;;;;;14.74;67.79;101981.53;4999601;28;20034;-82
2022/09/01 01:50:49;;;;;;;;;;;;;;;;;;;;;
2022/09/01 01:53:23;;;;;;;6.78;2.33;;;;;;;14.63;68.16;101974.56;4998417;28;20044;-82
2022/09/01 01:56:05;;;;;;;5.53;2.10;;;;;;;14.96;67.54;101998.88;5000110;28;20045;-81
2022/09/01 01:58:39;;;;;;;3.38;2.08;;;;;;;14.85;68.08;101995.38;4999538;28;20712;-81
2022/09/01 02:01:11;;;;;;;3.83;2.13;;;;;;;14.93;67.51;102004.38;5002648;28;20032;-82
2022/09/01 02:03:48;;;;;;;3.85;2.00;;;;;;;14.69;68.56;102002.78;5004086;28;20032;-81
2022/09/01 02:06:33;;;;;;;;;;;;;;;;;;;;;
2022/09/01 02:09:39;;;;;;;3.28;1.95;;;;;;;14.88;67.92;102010.78;4999732;28;20045;-81
2022/09/01 02:12:24;;;;;;;3.60;2.42;;;;;;;14.90;68.57;102023.72;5003990;28;20045;-81
2022/09/01 02:15:06;;;;;;;4.40;2.05;;;;;;;14.85;68.26;102005.81;5003858;28;20048;-83
2022/09/01 02:17:42;;;;;;;4.57;2.20;;;;;;;14.65;68.87;101988.31;5006573;28;20458;-83
2022/09/01 02:20:10;;;;;;;6.53;2.33;;;;;;;14.78;68.77;102015.09;4998096;28;20026;-83
2022/09/01 02:22:55;;;;;;;5.10;2.47;;;;;;;14.65;68.45;101983.09;4999925;28;20021;-84
2022/09/01 02:25:26;;;;;;;4.97;2.20;;;;;;;14.59;68.39;101988.81;5001874;28;20094;-81
2022/09/01 02:28:04;;;;;;;4.57;2.20;;;;;;;14.78;67.65;101993.38;5004645;28;20428;-84
2022/09/01 02:30:33;;;;;;;3.40;2.05;;;;;;;14.85;67.85;102000.59;4993759;28;20032;-83
2022/09/01 02:33:03;;;;;;;3.55;2.30;;;;;;;14.94;67.60;102019.09;5003982;28;20445;-83
2022/09/01 02:35:45;;;;;;;3.47;2.20;;;;;;;14.67;68.15;101981.16;4999757;28;20121;-84
2022/09/01 02:38:16;;;;;;;4.55;2.20;;;;;;;14.69;67.45;101976.69;5003149;28;20503;-84
2022/09/01 02:41:10;;;;;;;3.88;2.22;;;;;;;14.66;68.04;101969.06;4989081;28;20481;-83
2022/09/01 02:43:53;;;;;;;4.95;2.20;;;;;;;14.77;67.68;101983.88;5006479;28;20097;-84
2022/09/01 02:46:22;;;;;;;4.85;2.20;;;;;;;14.85;67.07;101990.16;5004664;28;20087;-84
2022/09/01 02:48:57;;;;;;;5.35;2.20;;;;;;;14.76;66.98;101974.38;4994586;28;20405;-84
2022/09/01 02:54:32;;;;;;;4.72;2.28;;;;;;;14.77;66.98;101965.59;4996620;28;20042;-81
2022/09/01 02:56:59;;;;;;;4.00;2.22;;;;;;;14.94;67.10;102011.25;4997264;28;20057;-82
2022/09/01 02:59:32;;;;;;;4.10;1.98;;;;;;;14.70;67.45;101980.13;4988216;28;20061;-83
2022/09/01 03:02:08;;;;;;;4.55;2.22;;;;;;;14.64;67.13;101955.31;4995985;28;20046;-81
2022/09/01 03:04:37;;;;;;;4.40;2.28;;;;;;;14.73;67.04;101978.06;5004233;28;20045;-82
2022/09/01 03:07:04;;;;;;;3.30;1.90;;;;;;;14.81;67.22;101980.06;5001157;28;20049;-81
2022/09/01 03:09:32;;;;;;;3.22;2.03;;;;;;;14.55;67.16;101948.22;4999770;28;20504;-84
2022/09/01 03:12:17;;;;;;;4.35;2.10;;;;;;;14.78;65.76;101968.06;4994042;28;20033;-84
2022/09/01 03:14:48;;;;;;;4.43;2.00;;;;;;;14.65;66.21;101958.75;5003792;28;20525;-83
2022/09/01 03:17:45;;;;;;;5.22;2.38;;;;;;;14.79;66.45;101985.41;5003856;28;20076;-85
2022/09/01 03:20:24;;;;;;;3.97;2.20;;;;;;;14.70;66.26;101970.50;5000729;28;20046;-83
2022/09/01 03:22:56;;;;;;;5.00;2.20;;;;;;;14.56;66.30;101952.47;4998442;28;20171;-84
2022/09/01 03:25:31;;;;;;;4.30;2.00;;;;;;;14.78;66.05;101988.97;5005082;28;20032;-84
2022/09/01 03:28:10;;;;;;;3.65;2.15;;;;;;;14.60;65.59;101959.13;5002351;28;20025;-83
2022/09/01 03:30:43;;;;;;;3.58;2.10;;;;;;;14.58;65.71;101956.66;5003954;28;20068;-83
2022/09/01 03:33:47;;;;;;;6.40;2.35;;;;;;;14.92;65.31;102006.16;4995508;28;20117;-84
2022/09/01 03:36:54;;;;;;;5.80;2.05;;;;;;;14.69;65.58;101968.84;4992610;23;20145;-84
2022/09/01 03:39:22;;;;;;;3.45;1.95;;;;;;;14.59;65.96;101962.69;4970369;28;20502;-83
2022/09/01 03:42:18;;;;;;;;;;;;;;;;;;;;;
2022/09/01 03:44:50;;;;;;;4.05;2.10;;;;;;;14.46;65.72;101962.00;4975129;28;20547;-83
2022/09/01 03:47:32;;;;;;;3.90;2.08;;;;;;;14.69;65.90;102000.19;4981852;28;20042;-84
2022/09/01 03:50:31;;;;;;;4.00;2.10;;;;;;;14.72;65.96;101997.31;4998618;28;20038;-82
2022/09/01 03:53:00;;;;;;;5.15;2.17;;;;;;;14.37;66.06;101952.28;4966573;28;20396;-81
2022/09/01 03:56:04;;;;;;;4.53;2.25;;;;;;;14.76;65.14;101993.50;4985884;28;20034;-81
2022/09/01 03:58:58;;;;;;;;;;;;;;;;;;;;;
2022/09/01 04:01:45;;;;;;;2.95;1.83;;;;;;;14.59;65.60;101967.91;4969558;28;20046;-83
2022/09/01 04:04:36;;;;;;;3.63;2.03;;;;;;;14.60;65.55;101980.00;4973889;28;20105;-84
2022/09/01 04:07:11;;;;;;;4.80;2.28;;;;;;;14.40;65.96;101958.09;4978503;28;20034;-83
2022/09/01 04:09:44;;;;;;;5.20;2.28;;;;;;;14.32;65.71;101950.84;4977618;28;20049;-83
2022/09/01 04:12:14;;;;;;;5.43;2.20;;;;;;;14.32;65.81;101950.84;4974311;28;20031;-84
2022/09/01 04:14:51;;;;;;;5.55;2.00;;;;;;;14.30;65.73;101946.72;4973318;28;20041;-83
2022/09/01 04:20:27;;;;;;;4.65;2.15;;;;;;;14.35;65.31;101950.63;4975743;28;20045;-84
2022/09/01 04:23:09;;;;;;;3.83;2.10;;;;;;;14.40;65.48;101978.97;4967324;28;20019;-84
2022/09/01 04:28:44;;;;;;;;;;;;;;;14.69;64.77;101992.34;4964696;28;20043;-84
2022/09/01 04:31:18;;;;;;;3.95;2.20;;;;;;;14.44;65.83;101990.81;4977646;28;19926;-84
2022/09/01 04:36:55;;;;;;;4.07;2.28;;;;;;;14.12;65.79;101954.22;4997088;28;20105;-83
2022/09/01 04:39:47;;;;;;;6.13;2.33;;;;;;;14.21;66.02;101963.91;5012285;28;20025;-84
2022/09/01 04:42:20;;;;;;;4.15;2.17;;;;;;;14.37;65.22;101963.53;4981396;28;20033;-83
2022/09/01 04:44:55;;;;;;;4.88;2.30;;;;;;;14.21;65.28;101953.47;4983008;28;20198;-84
2022/09/01 04:47:28;;;;;;;4.78;1.98;;;;;;;14.38;65.08;101982.63;4999745;28;20124;-83
2022/09/01 04:50:31;;;;;;;;;;;;;;;;;;;;;
2022/09/01 04:52:46;;;;;;;4.25;2.17;;;;;;;14.26;65.13;101987.88;4998926;23;20054;-81
2022/09/01 04:55:16;;;;;;;4.30;2.10;;;;;;;14.27;64.92;101988.69;4992933;28;20027;-82
2022/09/01 04:57:51;;;;;;;3.08;1.95;;;;;;;14.28;65.06;101986.00;4999274;28;20026;-82
2022/09/01 05:00:23;;;;;;;5.15;2.10;;;;;;;14.19;65.01;101981.47;4990141;28;20025;-83
2022/09/01 05:02:54;;;;;;;4.90;2.30;;;;;;;14.25;64.91;101990.63;4977852;28;20056;-82
2022/09/01 05:05:20;;;;;;;5.50;2.10;;;;;;;14.19;64.77;101980.66;4969627;28;20027;-82
2022/09/01 05:07:51;;;;;;;3.28;2.10;;;;;;;14.23;64.75;101993.34;5006293;28;20141;-82
2022/09/01 05:10:18;;;;;;;4.30;2.20;;;;;;;14.24;64.69;101994.19;4986769;28;20110;-81
2022/09/01 05:12:44;;;;;;;4.10;2.13;;;;;;;14.14;65.34;101993.22;4980152;28;20030;-81
2022/09/01 05:15:12;;;;;;;3.53;2.15;;;;;;;14.17;64.69;102001.66;4972158;28;20042;-81
2022/09/01 05:17:38;;;;;;;5.78;2.30;;;;;;;14.13;65.03;102002.84;4971790;28;20034;-81
2022/09/01 05:20:04;;;;;;;5.18;2.50;;;;;;;14.07;64.76;102001.53;4995708;28;20516;-81
2022/09/01 05:22:30;;;;;;;4.63;2.35;;;;;;;14.06;65.26;102006.88;4997908;28;20037;-81
2022/09/01 05:25:03;;;;;;;4.55;2.17;;;;;;;14.12;65.18;102005.56;5000834;28;20109;-82
2022/09/01 05:27:29;;;;;;;3.95;2.33;;;;;;;13.97;65.58;101986.72;4991208;28;20056;-82
2022/09/01 05:29:58;;;;;;;5.05;2.22;;;;;;;14.00;65.49;101991.72;4979807;28;20038;-81
2022/09/01 05:32:25;;;;;;;5.43;2.58;;;;;;;13.94;65.70;101992.19;4994305;28;20036;-82
2022/09/01 05:34:52;;;;;;;4.35;2.50;;;;;;;14.07;65.37;101998.09;5012057;28;20205;-82
2022/09/01 05:37:17;;;;;;;5.93;2.60;;;;;;;13.98;65.72;102004.00;4985380;28;20474;-81
2022/09/01 05:39:42;;;;;;;6.53;2.30;;;;;;;13.91;66.05;101998.44;5001659;28;20032;-83
2022/09/01 05:42:08;;;;;;;6.53;2.65;;;;;;;13.95;65.86;101994.66;4991006;28;20028;-81
2022/09/01 05:44:35;;;;;;;4.32;2.30;;;;;;;13.96;65.88;102001.53;5003383;28;20477;-81
2022/09/01 05:47:04;;;;;;;4.70;2.30;;;;;;;13.96;65.76;102011.16;4978132;28;20041;-82
2022/09/01 05:49:31;;;;;;;4.55;2.30;;;;;;;13.86;65.70;102004.97;4997456;28;20033;-82
2022/09/01 05:51:57;;;;;;;5.57;2.50;;;;;;;13.88;65.55;102010.88;5008090;28;20496;-82
2022/09/01 05:54:26;;;;;;;6.25;2.67;;;;;;;13.84;65.93;102012.09;5003540;28;20042;-81
2022/09/01 05:56:54;;;;;;;4.63;2.50;;;;;;;13.85;65.81;102013.75;5007035;28;20037;-81
2022/09/01 05:59:20;;;;;;;5.80;2.67;;;;;;;13.85;65.68;102018.97;5007076;28;20037;-81
2022/09/01 06:01:46;;;;;;;4.68;2.10;;;;;;;13.80;66.08;102014.91;5005091;28;20022;-81
2022/09/01 06:04:12;;;;;;;6.03;2.40;;;;;;;13.80;65.97;102021.91;5008961;28;20053;-82
2022/09/01 06:06:48;;;;;;;7.47;2.63;;;;;;;13.81;66.01;102021.78;4989066;28;20030;-81
2022/09/01 06:09:16;;;;;;;5.25;2.65;;;;;;;13.94;65.88;102013.06;5008150;28;20049;-81
2022/09/01 06:11:54;;;;;;;6.20;2.63;;;;;;;13.97;66.23;102012.78;5002776;28;20025;-82
2022/09/01 06:14:19;;;;;;;5.43;2.45;;;;;;;14.00;65.78;102012.56;5006744;28;20386;-81
2022/09/01 06:16:46;;;;;;;7.00;2.38;;;;;;;13.98;66.06;102020.50;4998110;28;20037;-81
2022/09/01 06:19:11;;;;;;;4.95;2.60;;;;;;;14.00;66.31;102012.56;4998676;28;20023;-81
2022/09/01 06:21:41;;;;;;;7.63;2.70;;;;;;;14.08;66.35;102021.44;4994042;28;20040;-82
2022/09/01 06:24:07;;;;;;;6.20;2.65;;;;;;;14.10;65.74;102018.72;4996992;28;20517;-82
2022/09/01 06:26:35;;;;;;;7.53;2.67;;;;;;;14.09;65.62;102022.28;5003458;28;20133;-83
2022/09/01 06:29:04;;;;;;;6.33;2.77;;;;;;;14.17;65.47;102025.16;4985960;28;20040;-82
2022/09/01 06:31:37;;;;;;;7.32;2.72;;;;;;;14.32;65.26;102033.53;4993599;28;20145;-83
2022/09/01 06:34:06;;;;;;;5.63;3.00;;;;;;;14.34;65.60;102022.06;5000118;28;20521;-82
2022/09/01 06:36:35;;;;;;;4.28;2.42;;;;;;;14.37;65.60;102035.78;4996908;28;20038;-83
2022/09/01 06:39:02;;;;;;;4.28;2.40;;;;;;;14.42;65.32;102028.44;4997408;28;20037;-82
2022/09/01 06:41:28;;;;;;;4.80;2.33;;;;;;;14.51;64.94;102032.97;4997614;28;20041;-82
2022/09/01 06:43:54;;;;;;;4.72;2.63;;;;;;;14.48;64.49;102027.97;5006640;28;20068;-82
2022/09/01 06:46:22;;;;;;;5.13;2.53;;;;;;;14.56;64.65;102042.06;5003236;28;20034;-83
2022/09/01 06:48:48;;;;;;;5.32;2.28;;;;;;;14.62;64.54;102035.53;4987144;28;20053;-83
2022/09/01 06:51:17;;;;;;;5.00;2.53;;;;;;;14.67;63.86;102033.41;5001727;28;20478;-82
2022/09/01 06:53:44;;;;;;;4.82;2.47;;;;;;;14.75;63.65;102036.25;4991059;28;20057;-82
2022/09/01 06:56:12;;;;;;;3.85;2.15;;;;;;;14.82;63.48;102032.19;5007698;28;20061;-82
2022/09/01 06:58:41;;;;;;;4.67;2.33;;;;;;;14.90;63.35;102033.34;4991232;28;20037;-82
2022/09/01 07:01:13;;;;;;;6.43;2.30;;;;;;;14.95;62.83;102025.97;5004059;28;20470;-82
2022/09/01 07:03:38;;;;;;;5.53;2.22;;;;;;;14.98;63.16;102025.72;5000212;28;20038;-82
2022/09/01 07:06:06;;;;;;;4.55;2.30;;;;;;;15.10;62.36;102040.41;5007795;28;20091;-82
2022/09/01 07:08:32;;;;;;;6.10;2.08;;;;;;;15.12;62.28;102025.41;4999873;28;20025;-84
2022/09/01 07:10:58;;;;;;;6.13;2.35;;;;;;;15.22;62.21;102028.94;5007939;28;20072;-84
2022/09/01 07:13:24;;;;;;;6.90;2.33;;;;;;;15.31;61.71;102032.56;4978449;28;20022;-83
2022/09/01 07:15:51;;;;;;;4.82;2.17;;;;;;;15.47;61.69;102037.38;4977057;28;20517;-83
2022/09/01 07:18:24;;;;;;;5.35;2.40;;;;;;;15.54;60.85;102038.50;5000384;28;20027;-83
2022/09/01 07:20:51;;;;;;;4.80;2.55;;;;;;;15.64;61.20;102044.66;4996677;28;20034;-83
2022/09/01 07:23:19;;;;;;;5.73;2.20;;;;;;;15.77;60.63;102039.22;5006583;28;20370;-84
2022/09/01 07:25:46;;;;;;;6.00;2.53;;;;;;;15.87;60.88;102040.94;4993887;28;20022;-84
2022/09/01 07:28:13;;;;;;;4.03;2.10;;;;;;;15.89;60.29;102039.03;5001334;28;20022;-84
2022/09/01 07:30:51;;;;;;;3.80;2.10;;;;;;;16.02;59.99;102045.84;4993011;28;20533;-83
2022/09/01 07:33:22;;;;;;;5.95;2.30;;;;;;;16.18;60.30;102046.19;5006136;28;20030;-83
2022/09/01 07:35:48;;;;;;;4.90;2.33;;;;;;;16.30;59.80;102039.91;5004968;28;20033;-83
2022/09/01 07:38:17;;;;;;;5.32;2.20;;;;;;;16.40;59.62;102043.38;4984089;28;20041;-84
2022/09/01 07:40:43;;;;;;;3.42;2.03;;;;;;;16.51;58.09;102042.44;5003293;28;20316;-85
2022/09/01 07:43:27;;;;;;;4.25;2.17;;;;;;;16.56;58.62;102047.25;4981581;28;20026;-84
2022/09/01 07:45:55;;;;;;;5.43;2.03;;;;;;;16.66;57.83;102042.88;4976681;28;20033;-83
2022/09/01 07:48:22;;;;;;;4.47;1.83;;;;;;;16.77;57.55;102040.19;4980679;28;20037;-84
2022/09/01 07:50:51;;;;;;;3.67;1.90;;;;;;;16.93;57.74;102039.66;4975413;28;20036;-83
2022/09/01 07:53:21;;;;;;;4.45;1.90;;;;;;;17.03;57.15;102043.06;4971373;28;20569;-84
2022/09/01 07:55:49;;;;;;;5.40;2.03;;;;;;;17.12;57.65;102033.56;4989672;28;20030;-84
2022/09/01 07:58:15;;;;;;;5.57;2.20;;;;;;;17.15;58.00;102033.31;4996904;28;20531;-84
2022/09/01 08:00:46;;;;;;;6.93;2.33;;;;;;;17.26;58.59;102030.53;4990734;28;20036;-83
2022/09/01 08:03:13;;;;;;;6.55;2.20;;;;;;;17.29;57.21;102027.63;4997306;28;20470;-84
2022/09/01 08:05:39;;;;;;;5.25;2.38;;;;;;;17.40;56.36;102035.34;4983649;28;20385;-83
2022/09/01 08:08:05;;;;;;;6.68;2.40;;;;;;;17.44;56.29;102038.53;4997414;28;20026;-84
2022/09/01 08:10:31;;;;;;;4.28;2.08;;;;;;;17.54;56.74;102034.06;5006310;28;20026;-84
2022/09/01 08:12:57;;;;;;;6.25;2.05;;;;;;;17.65;56.21;102035.72;4993433;28;20382;-85
2022/09/01 08:15:23;;;;;;;5.03;2.05;;;;;;;17.81;55.50;102037.78;4996135;28;20156;-84
2022/09/01 08:17:48;;;;;;;6.50;1.95;;;;;;;17.84;54.60;102034.88;5003672;28;20120;-84
2022/09/01 08:20:13;;;;;;;5.07;1.90;;;;;;;17.94;54.16;102036.47;4970250;28;20518;-84
2022/09/01 08:22:39;;;;;;;4.00;1.60;;;;;;;18.11;54.94;102041.94;4993067;28;20038;-84
2022/09/01 08:25:07;;;;;;;5.90;1.90;;;;;;;18.21;54.05;102042.75;5001684;28;20045;-84
2022/09/01 08:27:40;;;;;;;5.70;1.80;;;;;;;18.29;54.42;102040.19;5004513;28;20108;-84
2022/09/01 08:30:10;;;;;;;6.13;1.83;;;;;;;18.38;54.31;102043.75;5006826;28;20060;-83
2022/09/01 08:32:36;;;;;;;5.28;1.65;;;;;;;18.52;52.60;102046.75;5000254;28;20030;-84
2022/09/01 08:35:03;;;;;;;4.65;1.70;;;;;;;18.62;51.89;102048.47;4993408;28;20062;-84
2022/09/01 08:37:29;;;;;;;4.63;1.70;;;;;;;18.65;52.10;102041.13;4999224;28;20085;-84
2022/09/01 08:39:55;;;;;;;3.80;1.80;;;;;;;18.74;52.43;102044.66;4982552;28;20116;-83
2022/09/01 08:42:32;;;;;;;5.88;1.60;;;;;;;18.81;52.31;102037.88;5000091;28;20126;-83
2022/09/01 08:45:05;;;;;;;4.50;1.73;;;;;;;19.01;52.50;102047.25;4997768;28;20027;-81
2022/09/01 08:47:31;;;;;;;5.32;1.77;;;;;;;19.09;51.71;102041.22;4971320;28;20033;-81
2022/09/01 08:49:58;;;;;;;5.90;1.80;;;;;;;19.18;50.55;102053.47;4988230;28;20034;-81
2022/09/01 08:52:35;;;;;;;3.77;1.53;;;;;;;19.26;51.22;102050.06;5004164;28;20045;-81
2022/09/01 08:55:20;;;;;;;3.40;1.50;;;;;;;19.29;51.05;102050.59;5005100;28;20041;-81
2022/09/01 08:57:50;;;;;;;4.05;1.63;;;;;;;19.41;49.85;102048.56;4986928;28;20053;-81
2022/09/01 09:00:19;;;;;;;6.40;1.70;;;;;;;19.47;50.22;102042.69;5002229;28;20359;-82
2022/09/01 09:02:57;;;;;;;6.93;1.50;;;;;;;19.55;49.86;102034.81;4993403;28;20032;-80
2022/09/01 09:05:25;;;;;;;5.88;1.73;;;;;;;19.67;49.42;102042.50;4987996;28;20478;-81
2022/09/01 09:08:16;;;;;;;3.15;1.48;;;;;;;19.71;49.09;102033.31;4989041;28;20038;-80
2022/09/01 09:10:54;;;;;;;4.40;1.50;;;;;;;19.84;49.19;102033.72;4991643;28;20042;-83
2022/09/01 09:13:25;;;;;;;2.50;1.50;;;;;;;19.92;47.93;102044.31;4993217;28;20031;-80
2022/09/01 09:16:00;;;;;;;3.33;1.60;;;;;;;19.99;47.46;102031.34;4977355;28;21035;-81
2022/09/01 09:18:43;;;;;;;4.80;1.60;;;;;;;20.03;47.99;102028.25;4999367;28;20070;-80
2022/09/01 09:21:34;;;;;;;2.65;1.38;;;;;;;20.10;48.83;102023.97;4995683;28;20081;-80
2022/09/01 09:24:09;;;;;;;2.92;1.33;;;;;;;20.19;47.54;102042.47;4989766;28;20288;-81
2022/09/01 09:26:34;;;;;;;4.50;1.60;;;;;;;20.26;46.60;102027.66;4989599;28;20025;-81
2022/09/01 09:29:00;;;;;;;4.07;1.20;;;;;;;20.41;47.53;102021.63;5000986;28;20025;-80
2022/09/01 09:31:32;;;;;;;4.50;1.50;;;;;;;20.43;45.89;102030.19;5002262;28;20065;-81
2022/09/01 09:33:58;;;;;;;6.20;1.35;;;;;;;20.51;45.32;102026.78;5007767;28;20037;-80
2022/09/01 09:36:34;;;;;;;3.10;1.13;;;;;;;20.66;45.69;102024.34;5005815;28;20033;-82
2022/09/01 09:39:16;;;;;;;6.93;1.30;;;;;;;20.74;44.95;102024.34;5001039;28;20034;-82
2022/09/01 09:41:42;;;;;;;3.40;1.20;;;;;;;20.72;44.89;102022.88;5003405;28;20022;-82
2022/09/01 09:44:30;;;;;;;2.97;1.30;;;;;;;20.82;45.46;102018.28;4985752;28;20026;-81
2022/09/01 09:46:58;;;;;;;5.28;1.48;;;;;;;20.82;44.17;102013.84;4989446;28;20030;-81
2022/09/01 09:49:27;;;;;;;5.80;1.42;;;;;;;20.93;43.81;102015.28;4990086;28;20026;-80
2022/09/01 09:52:13;;;;;;;4.05;1.50;;;;;;;20.98;44.62;102013.00;4990027;28;20108;-80
2022/09/01 09:54:56;;;;;;;2.53;1.30;;;;;;;21.08;43.88;102008.38;4992975;28;20025;-81
2022/09/01 09:57:21;;;;;;;3.45;1.27;;;;;;;21.15;43.49;102004.09;5005970;28;20030;-80
2022/09/01 09:59:53;;;;;;;3.45;1.30;;;;;;;21.23;42.70;102011.19;4994205;28;20068;-80
2022/09/01 10:02:29;;;;;;;4.78;1.17;;;;;;;21.21;42.34;102008.69;4993424;28;20121;-79
2022/09/01 10:04:55;;;;;;;4.03;1.30;;;;;;;21.25;42.35;101987.28;4991062;28;20072;-82
2022/09/01 10:07:31;;;;;;;5.13;1.42;;;;;;;21.29;42.86;102001.78;4993635;28;20036;-81
2022/09/01 10:10:00;;;;;;;4.32;1.35;;;;;;;21.54;42.75;102000.78;4996193;28;20550;-81
2022/09/01 10:12:27;;;;;;;2.53;1.13;;;;;;;21.46;41.22;101984.97;4997382;28;20022;-81
2022/09/01 10:15:04;;;;;;;5.50;1.20;;;;;;;21.53;40.76;101996.50;4992860;28;20043;-80
2022/09/01 10:17:38;;;;;;;4.45;1.27;;;;;;;21.70;40.32;101992.81;5005103;28;20466;-80
2022/09/01 10:20:10;;;;;;;3.00;1.20;;;;;;;21.80;40.34;101991.81;4993999;28;20459;-80
2022/09/01 10:22:36;;;;;;;3.25;1.08;;;;;;;21.85;38.89;101992.09;4995354;28;20034;-80
2022/09/01 10:25:03;;;;;;;3.47;1.20;;;;;;;21.87;39.42;101987.47;4989099;28;20062;-80
2022/09/01 10:27:33;;;;;;;3.90;1.00;;;;;;;21.99;39.34;101991.38;4999364;28;20092;-80
2022/09/01 10:30:05;;;;;;;3.85;1.20;;;;;;;22.07;39.26;101999.25;4996682;28;20026;-81
2022/09/01 10:32:44;;;;;;;3.15;1.20;;;;;;;22.13;39.76;101993.31;4996831;28;20030;-80
2022/09/01 10:35:18;;;;;;;2.17;1.15;;;;;;;22.13;38.11;101992.50;5004459;28;20061;-82
2022/09/01 10:37:45;;;;;;;4.50;1.30;;;;;;;22.21;38.31;101987.19;4998662;28;20015;-82
2022/09/01 10:40:13;;;;;;;3.30;1.10;;;;;;;22.25;36.92;101981.38;4995153;28;20034;-83
2022/09/01 10:42:42;;;;;;;2.47;1.20;;;;;;;22.37;37.57;101978.34;4994172;28;20033;-82
2022/09/01 10:45:34;;;;;;;2.75;1.15;;;;;;;22.47;38.09;101981.56;4991502;28;20072;-82
2022/09/01 10:48:18;;;;;;;2.17;1.08;;;;;;;22.53;37.87;101983.50;4995513;28;20487;-83
2022/09/01 10:50:45;;;;;;;1.60;1.00;;;;;;;22.68;37.59;101971.19;5001943;28;20496;-83
2022/09/01 10:53:34;;;;;;;1.55;1.00;;;;;;;22.79;38.01;101976.06;5001314;28;20046;-84
2022/09/01 10:56:06;;;;;;;2.58;1.05;;;;;;;22.97;37.76;101977.59;4996281;28;20030;-83
2022/09/01 10:58:40;;;;;;;3.05;1.08;;;;;;;22.88;36.16;101968.91;5002239;28;20026;-81
2022/09/01 11:01:05;;;;;;;2.83;1.13;;;;;;;22.93;34.95;101973.66;5005359;28;20073;-83
2022/09/01 11:03:53;;;;;;;3.08;0.90;;;;;;;22.79;34.51;101967.28;5001655;28;20465;-83
2022/09/01 11:06:53;;;;;;;2.37;1.00;;;;;;;23.08;37.03;101971.88;4994155;28;20064;-82
2022/09/01 11:09:35;;;;;;;1.73;1.08;;;;;;;22.98;34.36;101966.00;4991710;28;20026;-84
2022/09/01 11:12:24;;;;;;;3.35;0.90;;;;;;;22.99;34.83;101962.34;4981914;28;20061;-83
2022/09/01 11:14:54;;;;;;;3.85;1.10;;;;;;;23.09;34.70;101973.50;4993673;28;20037;-83
2022/09/01 11:17:22;;;;;;;2.90;1.10;;;;;;;23.23;33.92;101956.84;4999741;28;20030;-83
2022/09/01 11:19:57;;;;;;;3.38;1.00;;;;;;;23.11;33.80;101963.59;5000852;28;20034;-82
2022/09/01 11:22:31;;;;;;;3.75;1.10;;;;;;;23.05;33.00;101964.28;4989665;28;20034;-82
2022/09/01 11:25:32;;;;;;;2.25;0.90;;;;;;;23.23;33.48;101958.66;4977134;28;20458;-84
2022/09/01 11:28:08;;;;;;;2.30;1.00;;;;;;;23.27;32.23;101968.69;4995840;28;20470;-83
2022/09/01 11:30:44;;;;;;;1.67;1.10;;;;;;;23.19;31.48;101958.19;4991063;28;20598;-82
2022/09/01 11:33:15;;;;;;;3.28;0.95;;;;;;;23.27;32.47;101960.75;4998712;28;20030;-84
2022/09/01 11:35:45;;;;;;;1.65;0.90;;;;;;;23.26;32.31;101953.81;5003403;28;20049;-82
2022/09/01 11:38:14;;;;;;;2.97;0.80;;;;;;;23.50;32.46;101943.97;4994786;28;20141;-82
2022/09/01 11:40:41;;;;;;;2.20;0.90;;;;;;;23.70;31.71;101950.38;5005330;28;20104;-81
2022/09/01 11:43:12;;;;;;;2.60;0.93;;;;;;;23.71;31.42;101951.22;5005933;28;20033;-82
2022/09/01 11:45:57;;;;;;;2.75;0.90;;;;;;;23.61;31.94;101940.84;4991390;28;20029;-82
2022/09/01 11:48:24;;;;;;;2.03;1.00;;;;;;;23.64;30.99;101935.22;4995165;28;20048;-81
2022/09/01 11:50:58;;;;;;;2.85;0.90;;;;;;;23.71;31.39;101936.13;5000030;28;20030;-80
2022/09/01 11:53:24;;;;;;;2.13;0.90;;;;;;;23.92;30.92;101937.22;5004577;28;20045;-80
2022/09/01 11:55:52;;;;;;;2.90;0.90;;;;;;;23.91;31.57;101946.97;5003079;28;20056;-80
2022/09/01 11:58:26;;;;;;;3.40;1.08;;;;;;;23.77;31.07;101945.16;4989473;28;20030;-80
2022/09/01 12:00:53;;;;;;;2.88;0.90;;;;;;;23.91;31.90;101935.53;4989561;28;20073;-80
2022/09/01 12:03:27;;;;;;;2.05;0.90;;;;;;;23.96;31.05;101922.56;4991780;28;20026;-80
2022/09/01 12:05:58;;;;;;;2.20;0.93;;;;;;;24.25;31.22;101933.06;4995651;28;20030;-80
2022/09/01 12:08:26;;;;;;;2.92;1.10;;;;;;;24.15;30.74;101926.44;5002636;28;20116;-81
2022/09/01 12:11:02;;;;;;;;;;;;;;;24.34;33.14;101924.03;5002136;28;20026;-80
2022/09/01 12:13:28;;;;;;;2.45;1.10;;;;;;;24.43;31.18;101923.88;5002443;28;20393;-81
2022/09/01 12:16:02;;;;;;;2.33;0.90;;;;;;;24.31;31.49;101921.69;4992536;28;20038;-80
2022/09/01 12:18:30;;;;;;;1.85;0.98;;;;;;;24.33;31.34;101925.00;4992374;28;20025;-80
2022/09/01 12:20:58;;;;;;;2.70;1.05;;;;;;;24.24;29.79;101914.69;4998037;28;20032;-80
2022/09/01 12:23:28;;;;;;;1.58;0.98;;;;;;;24.35;30.61;101917.69;4999075;28;20080;-83
2022/09/01 12:25:57;;;;;;;2.65;1.10;;;;;;;24.25;30.58;101916.34;4997952;28;20057;-84
2022/09/01 12:28:25;;;;;;;4.10;1.00;;;;;;;24.22;29.91;101912.25;4995532;28;20406;-83
2022/09/01 12:30:52;;;;;;;4.85;0.95;;;;;;;24.10;30.96;101913.75;5003362;28;20026;-83